Terminal Aerodrome Forecast
Issued by NWS

Home | Current Version | Previous Version | Graphics & Text | Print | Product List | Glossary On
Versions: 1 2 3 4 5 6 7 8 9 10 11 12 13 14 15 16 17 18 19 20
000
FTUS43 KBIS 272101 AAB
TAFJMS
TAF AMD
KJMS 272101Z 2721/2818 06007KT P6SM SCT120 BKN200
     FM280100 13007KT P6SM SCT090
     FM280400 13009KT 3SM -SHRA BR BKN025
     FM281000 14006KT 5SM BR BKN015=

USA.gov is the U.S. government's official web portal to all federal, state and local government web resources and services.